Time;durP1;ratioP1;P1;durP2;ratioP2;P2;SDS_P1;SDS_P2;PMS_P1;PMS_P2;Temp;Humidity;BMP_temperature;BMP_pressure;BME280_temperature;BME280_humidity;BME280_pressure;Samples;Min_cycle;Max_cycle;Signal;HPM_P1;HPM_P2
2023/03/22 00:00:50;;;;;;;10.50;1.50;;;11.00;99.90;;;;;;5032370;28;20375;-73
2023/03/22 00:03:16;;;;;;;8.70;1.88;;;11.00;99.90;;;;;;5033119;28;20148;-73
2023/03/22 00:05:43;;;;;;;13.55;1.67;;;11.00;99.90;;;;;;5032170;28;20099;-73
2023/03/22 00:08:09;;;;;;;4.38;1.10;;;11.10;99.90;;;;;;5032465;28;20051;-73
2023/03/22 00:10:37;;;;;;;10.82;1.50;;;11.10;99.90;;;;;;5015097;28;20349;-73
2023/03/22 00:13:04;;;;;;;15.02;2.17;;;11.20;99.90;;;;;;5032727;28;20076;-73
2023/03/22 00:15:30;;;;;;;10.95;2.08;;;11.10;99.90;;;;;;5028611;28;20469;-74
2023/03/22 00:17:57;;;;;;;7.63;1.33;;;11.10;99.90;;;;;;5030582;28;20037;-73
2023/03/22 00:20:24;;;;;;;14.55;1.65;;;11.10;99.90;;;;;;5032787;28;20473;-73
2023/03/22 00:22:50;;;;;;;8.95;2.10;;;11.10;99.90;;;;;;5032118;28;20060;-73
2023/03/22 00:25:16;;;;;;;8.68;2.03;;;11.00;99.90;;;;;;5031755;28;20049;-73
2023/03/22 00:27:42;;;;;;;8.63;1.52;;;11.00;99.90;;;;;;5032477;28;20033;-73
2023/03/22 00:30:09;;;;;;;14.60;2.05;;;10.90;99.90;;;;;;5031355;28;20044;-73
2023/03/22 00:32:36;;;;;;;7.68;1.67;;;10.90;99.90;;;;;;5031718;28;20049;-73
2023/03/22 00:35:04;;;;;;;10.80;1.73;;;10.90;99.90;;;;;;5028967;28;20531;-73
2023/03/22 00:37:33;;;;;;;11.60;1.77;;;10.90;99.90;;;;;;5031765;28;20076;-73
2023/03/22 00:39:59;;;;;;;11.13;3.10;;;10.90;99.90;;;;;;5024449;28;20087;-73
2023/03/22 00:42:26;;;;;;;10.05;2.25;;;10.90;99.90;;;;;;5032097;28;20022;-73
2023/03/22 00:44:51;;;;;;;5.43;1.98;;;10.90;99.90;;;;;;5015944;28;20053;-73
2023/03/22 00:47:17;;;;;;;12.30;2.30;;;10.90;99.90;;;;;;5032066;28;20028;-73
2023/03/22 00:49:42;;;;;;;13.73;2.33;;;10.90;99.90;;;;;;5031500;28;20064;-73
2023/03/22 00:52:08;;;;;;;11.68;2.03;;;10.80;99.90;;;;;;5030076;28;20076;-73
2023/03/22 00:54:33;;;;;;;12.60;2.17;;;10.80;99.90;;;;;;5028857;28;20030;-73
2023/03/22 00:56:59;;;;;;;6.53;1.80;;;10.80;99.90;;;;;;5032247;28;20021;-73
2023/03/22 00:59:24;;;;;;;9.40;1.33;;;10.80;99.90;;;;;;5023641;28;20156;-73
2023/03/22 01:01:50;;;;;;;13.70;3.10;;;10.80;99.90;;;;;;5031906;28;20103;-73
2023/03/22 01:04:16;;;;;;;9.73;2.25;;;10.80;99.90;;;;;;5030945;28;20045;-73
2023/03/22 01:06:42;;;;;;;12.23;2.60;;;10.70;99.90;;;;;;5030363;28;20362;-73
2023/03/22 01:09:13;;;;;;;14.15;2.20;;;10.70;99.90;;;;;;5031356;28;20033;-73
2023/03/22 01:11:39;;;;;;;12.52;2.15;;;10.70;99.90;;;;;;5030236;28;20035;-73
2023/03/22 01:14:08;;;;;;;11.43;2.55;;;10.70;99.90;;;;;;5031949;28;20048;-73
2023/03/22 01:16:35;;;;;;;13.98;2.80;;;10.70;99.90;;;;;;5031742;28;20430;-73
2023/03/22 01:19:01;;;;;;;15.63;2.60;;;10.60;99.90;;;;;;5022079;28;20049;-73
2023/03/22 01:21:26;;;;;;;7.18;1.63;;;10.60;99.90;;;;;;5025014;28;20034;-73
2023/03/22 01:23:52;;;;;;;11.27;2.35;;;10.60;99.90;;;;;;5031554;28;20045;-73
2023/03/22 01:26:17;;;;;;;6.75;1.90;;;10.50;99.90;;;;;;5031082;28;20033;-73
2023/03/22 01:28:43;;;;;;;16.15;3.60;;;10.50;99.90;;;;;;5033316;28;20366;-73
2023/03/22 01:31:08;;;;;;;11.13;2.45;;;10.50;99.90;;;;;;5033928;28;20041;-73
2023/03/22 01:33:34;;;;;;;14.13;2.78;;;10.50;99.90;;;;;;5035603;28;20120;-73
2023/03/22 01:36:00;;;;;;;16.00;2.47;;;10.50;99.90;;;;;;5035792;28;20032;-73
2023/03/22 01:38:25;;;;;;;14.40;2.47;;;10.60;99.90;;;;;;5031142;28;20050;-73
2023/03/22 01:40:51;;;;;;;15.10;2.63;;;10.60;99.90;;;;;;5028272;28;20076;-73
2023/03/22 01:43:17;;;;;;;13.23;2.15;;;10.60;99.90;;;;;;5033153;28;20156;-73
2023/03/22 01:45:47;;;;;;;15.90;3.15;;;10.50;99.90;;;;;;5018234;28;20474;-73
2023/03/22 01:48:33;;;;;;;13.52;2.92;;;10.50;99.90;;;;;;5035372;28;20117;-73
2023/03/22 01:51:01;;;;;;;10.35;3.05;;;10.50;99.90;;;;;;5028549;28;20029;-73
2023/03/22 01:53:29;;;;;;;18.42;3.60;;;10.50;99.90;;;;;;5033776;28;20156;-73
2023/03/22 01:55:56;;;;;;;9.80;2.42;;;10.50;99.90;;;;;;5035645;28;20039;-73
2023/03/22 01:58:22;;;;;;;9.55;2.95;;;10.50;99.90;;;;;;5035510;28;20026;-73
2023/03/22 02:00:49;;;;;;;10.43;3.50;;;10.50;99.90;;;;;;5032820;28;20040;-73
2023/03/22 02:03:20;;;;;;;12.88;2.55;;;10.50;99.90;;;;;;5035084;28;20044;-73
2023/03/22 02:05:46;;;;;;;9.57;3.00;;;10.50;99.90;;;;;;5035102;28;20092;-73
2023/03/22 02:08:13;;;;;;;16.80;3.63;;;10.50;99.90;;;;;;5035178;28;20038;-73
2023/03/22 02:10:39;;;;;;;12.52;2.55;;;10.50;99.90;;;;;;5035295;28;20104;-73
2023/03/22 02:13:46;;;;;;;8.13;2.45;;;10.50;99.90;;;;;;5034674;28;20455;-73
2023/03/22 02:16:19;;;;;;;17.52;3.53;;;10.40;99.90;;;;;;5034967;28;20037;-74
2023/03/22 02:18:53;;;;;;;11.73;3.30;;;10.40;99.90;;;;;;5034730;28;20025;-73
2023/03/22 02:21:34;;;;;;;10.98;2.65;;;10.40;99.90;;;;;;5034915;28;20493;-73
2023/03/22 02:24:34;;;;;;;10.75;2.78;;;10.40;99.90;;;;;;5034850;28;20052;-73
2023/03/22 02:27:24;;;;;;;15.43;3.53;;;10.40;99.90;;;;;;5019976;28;20040;-73
2023/03/22 02:30:24;;;;;;;12.70;3.25;;;10.40;99.90;;;;;;5034655;28;20084;-73
2023/03/22 02:33:11;;;;;;;16.90;3.65;;;10.40;99.90;;;;;;5034871;28;20065;-73
2023/03/22 02:35:51;;;;;;;16.20;2.92;;;10.40;99.90;;;;;;5033662;28;20033;-73
2023/03/22 02:38:44;;;;;;;14.82;2.78;;;10.30;99.90;;;;;;5034004;28;20108;-73
2023/03/22 02:41:26;;;;;;;15.02;3.42;;;10.30;99.90;;;;;;5014287;28;20034;-73
2023/03/22 02:44:03;;;;;;;16.25;3.85;;;10.20;99.90;;;;;;5026286;28;20040;-73
2023/03/22 02:46:47;;;;;;;20.67;4.57;;;10.20;99.90;;;;;;5032819;28;20087;-73
2023/03/22 02:49:25;;;;;;;10.73;3.00;;;10.20;99.90;;;;;;5028299;28;20047;-73
2023/03/22 02:51:58;;;;;;;9.75;2.65;;;10.10;99.90;;;;;;5034428;28;20033;-73
2023/03/22 02:54:55;;;;;;;16.73;2.80;;;10.10;99.90;;;;;;5033912;28;20033;-73
2023/03/22 02:57:40;;;;;;;14.38;3.63;;;10.10;99.90;;;;;;5034470;28;20034;-73
2023/03/22 03:00:11;;;;;;;11.73;3.60;;;10.00;99.90;;;;;;5034023;28;20462;-73
2023/03/22 03:02:48;;;;;;;16.60;4.10;;;10.00;99.90;;;;;;5033869;28;20057;-73
2023/03/22 03:05:15;;;;;;;17.42;5.10;;;10.00;99.90;;;;;;5032971;28;20098;-73
2023/03/22 03:07:45;;;;;;;14.10;3.65;;;10.00;99.90;;;;;;5033315;28;20037;-73
2023/03/22 03:10:14;;;;;;;17.15;3.55;;;10.00;99.90;;;;;;5033656;28;20473;-73
2023/03/22 03:12:40;;;;;;;16.75;4.50;;;10.00;99.90;;;;;;5033961;28;20033;-73
2023/03/22 03:15:14;;;;;;;12.65;3.67;;;10.00;99.90;;;;;;5033615;28;20070;-73
2023/03/22 03:17:50;;;;;;;13.88;3.75;;;10.00;99.90;;;;;;5031813;28;20389;-74
2023/03/22 03:20:41;;;;;;;11.40;3.55;;;10.00;99.90;;;;;;5032223;28;20068;-73
2023/03/22 03:23:30;;;;;;;11.55;3.63;;;10.00;99.90;;;;;;5016864;28;20038;-73
2023/03/22 03:26:22;;;;;;;14.50;5.13;;;9.90;99.90;;;;;;5031219;28;20501;-73
2023/03/22 03:28:51;;;;;;;8.40;3.83;;;9.90;99.90;;;;;;5032171;28;20064;-73
2023/03/22 03:31:27;;;;;;;12.38;4.63;;;9.90;99.90;;;;;;5031416;28;20163;-73
2023/03/22 03:34:06;;;;;;;18.48;4.35;;;10.00;99.90;;;;;;5030647;28;20385;-74
2023/03/22 03:36:36;;;;;;;14.40;3.95;;;10.00;99.90;;;;;;5029599;28;20192;-73
2023/03/22 03:39:06;;;;;;;15.93;4.15;;;10.00;99.90;;;;;;5032309;28;20034;-73
2023/03/22 03:41:33;;;;;;;14.05;4.43;;;10.10;99.90;;;;;;5033185;28;20064;-74
2023/03/22 03:43:59;;;;;;;11.73;3.72;;;10.10;99.90;;;;;;5032281;28;20421;-74
2023/03/22 03:46:27;;;;;;;15.93;3.70;;;10.10;99.90;;;;;;5031915;28;20033;-73
2023/03/22 03:48:56;;;;;;;12.48;3.35;;;10.10;99.90;;;;;;5030097;28;20041;-74
2023/03/22 03:51:22;;;;;;;12.77;4.15;;;10.20;99.90;;;;;;5028317;28;20432;-73
2023/03/22 03:53:47;;;;;;;12.75;3.97;;;10.20;99.90;;;;;;5026894;28;20029;-74
2023/03/22 03:56:13;;;;;;;11.15;3.63;;;10.20;99.90;;;;;;5031846;28;20037;-73
2023/03/22 03:58:39;;;;;;;13.63;4.50;;;10.20;99.90;;;;;;5031107;28;20025;-73
2023/03/22 04:01:05;;;;;;;11.80;3.47;;;10.30;99.90;;;;;;5027706;28;20029;-73
2023/03/22 04:03:31;;;;;;;12.80;3.67;;;10.20;99.90;;;;;;5028514;28;20045;-74
2023/03/22 04:05:58;;;;;;;12.57;3.78;;;10.30;99.90;;;;;;5032697;28;20044;-73
2023/03/22 04:08:24;;;;;;;15.55;5.55;;;10.30;99.90;;;;;;5033033;28;20091;-73
2023/03/22 04:10:51;;;;;;;11.57;3.90;;;10.30;99.90;;;;;;5033252;28;20041;-73
2023/03/22 04:13:20;;;;;;;11.50;4.00;;;10.30;99.90;;;;;;5032875;28;20051;-73
2023/03/22 04:15:46;;;;;;;18.52;5.13;;;10.30;99.90;;;;;;5032370;28;20029;-74
2023/03/22 04:18:11;;;;;;;16.02;4.07;;;10.30;99.90;;;;;;5032650;28;20179;-73
2023/03/22 04:20:40;;;;;;;9.38;3.42;;;10.40;99.90;;;;;;5032424;28;20032;-73
2023/03/22 04:23:09;;;;;;;10.73;3.65;;;10.40;99.90;;;;;;5032694;28;20033;-73
2023/03/22 04:25:36;;;;;;;10.00;3.47;;;10.40;99.90;;;;;;5032291;28;20033;-73
2023/03/22 04:28:03;;;;;;;11.63;4.05;;;10.40;99.90;;;;;;5032780;28;20033;-73
2023/03/22 04:30:29;;;;;;;17.30;5.13;;;10.50;99.90;;;;;;5032470;28;20104;-73
2023/03/22 04:32:55;;;;;;;12.98;4.03;;;10.50;99.90;;;;;;5032793;28;20088;-73
2023/03/22 04:35:21;;;;;;;11.35;4.32;;;10.60;99.90;;;;;;5030737;28;20029;-73
2023/03/22 04:37:47;;;;;;;16.27;3.95;;;10.60;99.90;;;;;;5022211;28;20039;-73
2023/03/22 04:40:19;;;;;;;15.52;4.13;;;10.60;99.90;;;;;;5018842;28;20037;-73
2023/03/22 04:42:45;;;;;;;17.65;5.38;;;10.70;99.90;;;;;;5032501;28;20037;-73
2023/03/22 04:45:12;;;;;;;17.85;5.57;;;10.70;99.90;;;;;;5032184;28;20041;-73
2023/03/22 04:47:38;;;;;;;11.40;4.30;;;10.70;99.90;;;;;;5030837;28;20112;-73
2023/03/22 04:50:06;;;;;;;14.25;4.70;;;10.70;99.90;;;;;;5032120;28;20109;-73
2023/03/22 04:52:31;;;;;;;14.18;4.97;;;10.80;99.90;;;;;;5032215;28;20057;-73
2023/03/22 04:54:57;;;;;;;12.75;4.65;;;10.80;99.90;;;;;;5032063;28;20080;-73
2023/03/22 04:57:23;;;;;;;10.50;4.20;;;10.80;99.90;;;;;;5031998;28;20029;-73
2023/03/22 04:59:49;;;;;;;16.42;5.00;;;10.80;99.90;;;;;;5031892;28;20076;-73
2023/03/22 05:02:15;;;;;;;14.55;5.00;;;10.90;99.90;;;;;;5032443;28;20029;-73
2023/03/22 05:04:41;;;;;;;15.15;4.88;;;10.90;99.90;;;;;;5030666;28;20111;-73
2023/03/22 05:07:06;;;;;;;15.32;4.55;;;10.90;99.90;;;;;;5023852;28;20416;-73
2023/03/22 05:09:32;;;;;;;15.20;4.55;;;10.90;99.90;;;;;;5015969;28;20406;-73
2023/03/22 05:11:57;;;;;;;12.75;4.32;;;10.90;99.90;;;;;;5032226;28;20639;-73
2023/03/22 05:14:23;;;;;;;11.18;4.53;;;10.90;99.90;;;;;;5032041;28;20026;-73
2023/03/22 05:16:49;;;;;;;13.32;4.50;;;11.00;99.90;;;;;;5032109;28;20030;-73
2023/03/22 05:19:14;;;;;;;13.65;5.05;;;11.00;99.90;;;;;;5032373;28;20034;-73
2023/03/22 05:21:42;;;;;;;10.70;4.68;;;10.90;99.90;;;;;;5032284;28;20029;-73
2023/03/22 05:24:09;;;;;;;21.17;6.95;;;11.00;99.90;;;;;;5032165;28;20092;-72
2023/03/22 05:26:36;;;;;;;11.73;4.00;;;11.00;99.90;;;;;;5032154;28;20057;-73
2023/03/22 05:29:03;;;;;;;16.02;5.05;;;11.00;99.90;;;;;;5031884;28;20080;-73
2023/03/22 05:31:29;;;;;;;11.18;4.18;;;10.90;99.90;;;;;;5032020;28;20133;-73
2023/03/22 05:33:54;;;;;;;15.32;5.10;;;11.00;99.90;;;;;;5032191;28;20118;-73
2023/03/22 05:36:24;;;;;;;10.63;3.70;;;10.90;99.90;;;;;;5032183;28;20026;-73
2023/03/22 05:38:50;;;;;;;14.50;4.30;;;11.00;99.90;;;;;;5032210;28;20032;-73
2023/03/22 05:41:15;;;;;;;15.13;5.60;;;11.00;99.90;;;;;;5032267;28;20026;-73
2023/03/22 05:43:41;;;;;;;12.48;5.47;;;11.00;99.90;;;;;;5031748;28;20040;-73
2023/03/22 05:46:08;;;;;;;11.30;4.78;;;11.00;99.90;;;;;;5032071;28;20029;-73
2023/03/22 05:48:35;;;;;;;8.93;3.55;;;11.00;99.90;;;;;;5032090;28;20035;-73
2023/03/22 05:51:02;;;;;;;10.60;4.13;;;11.00;99.90;;;;;;5031859;28;20025;-73
2023/03/22 05:53:28;;;;;;;13.27;4.57;;;11.00;99.90;;;;;;5031538;28;20476;-73
2023/03/22 05:55:56;;;;;;;11.25;4.03;;;11.00;99.90;;;;;;5030852;28;20034;-74
2023/03/22 05:58:23;;;;;;;13.75;4.18;;;11.00;99.90;;;;;;5031382;28;20044;-73
2023/03/22 06:00:50;;;;;;;11.77;4.28;;;11.00;99.90;;;;;;5031523;28;20080;-73
2023/03/22 06:03:17;;;;;;;10.82;3.03;;;11.10;99.90;;;;;;5031529;28;20029;-73
2023/03/22 06:05:42;;;;;;;13.15;3.60;;;11.10;99.90;;;;;;5031438;28;20041;-73
2023/03/22 06:08:08;;;;;;;13.63;4.13;;;11.10;99.90;;;;;;5031687;28;20041;-73
2023/03/22 06:10:33;;;;;;;18.85;4.72;;;11.10;99.90;;;;;;5031576;28;20043;-74
2023/03/22 06:12:59;;;;;;;12.73;2.70;;;11.20;99.90;;;;;;5031515;28;20120;-73
2023/03/22 06:15:25;;;;;;;12.18;3.15;;;11.20;99.90;;;;;;5033123;28;20030;-73
2023/03/22 06:17:50;;;;;;;13.65;3.90;;;11.20;99.90;;;;;;5035696;28;20457;-73
2023/03/22 06:20:16;;;;;;;10.02;3.03;;;11.20;99.90;;;;;;5035523;28;20385;-73
2023/03/22 06:22:41;;;;;;;8.48;2.80;;;11.30;99.90;;;;;;5035470;28;20032;-73
2023/03/22 06:25:08;;;;;;;10.80;2.67;;;11.30;99.90;;;;;;5034763;28;20033;-74
2023/03/22 06:27:34;;;;;;;13.02;2.45;;;11.40;99.90;;;;;;5034694;28;20362;-74
2023/03/22 06:30:00;;;;;;;10.55;2.75;;;11.40;99.90;;;;;;5035137;28;20032;-74
2023/03/22 06:32:26;;;;;;;10.95;2.72;;;11.40;99.90;;;;;;5035152;28;20049;-73
2023/03/22 06:35:07;;;;;;;15.77;2.65;;;11.50;99.90;;;;;;5034002;28;20096;-73
2023/03/22 06:37:32;;;;;;;12.82;2.42;;;11.40;99.90;;;;;;5017063;28;20396;-74
2023/03/22 06:39:58;;;;;;;11.07;2.88;;;11.40;99.90;;;;;;5034435;28;20045;-74
2023/03/22 06:42:24;;;;;;;10.88;2.22;;;11.40;99.90;;;;;;5034908;28;20028;-74
2023/03/22 06:44:50;;;;;;;15.32;3.85;;;11.40;99.90;;;;;;5035041;28;20049;-73
2023/03/22 06:47:15;;;;;;;16.92;3.78;;;11.40;99.90;;;;;;5033484;28;20440;-74
2023/03/22 06:49:41;;;;;;;17.65;3.15;;;11.40;99.90;;;;;;5034893;28;20056;-72
2023/03/22 06:52:07;;;;;;;10.98;4.03;;;11.40;99.90;;;;;;5034530;28;20032;-72
2023/03/22 06:54:33;;;;;;;10.38;2.20;;;11.40;99.90;;;;;;5034240;28;20088;-75
2023/03/22 06:56:59;;;;;;;13.77;5.25;;;11.40;99.90;;;;;;5034616;28;20064;-74
2023/03/22 06:59:24;;;;;;;12.18;3.42;;;11.40;99.90;;;;;;5034272;28;20052;-75
2023/03/22 07:01:50;;;;;;;10.55;3.08;;;11.40;99.90;;;;;;5034533;28;20437;-75
2023/03/22 07:04:16;;;;;;;10.65;2.90;;;11.40;99.90;;;;;;5034349;28;20048;-74
2023/03/22 07:06:41;;;;;;;19.30;5.32;;;11.50;99.90;;;;;;5034507;28;20382;-74
2023/03/22 07:09:07;;;;;;;15.85;4.95;;;11.50;99.90;;;;;;5034068;28;20144;-75
2023/03/22 07:11:32;;;;;;;6.85;2.40;;;11.50;99.90;;;;;;5034450;28;20121;-75
2023/03/22 07:13:58;;;;;;;15.23;4.18;;;11.60;99.90;;;;;;5033087;28;20065;-74
2023/03/22 07:16:23;;;;;;;12.45;4.63;;;11.50;99.90;;;;;;5034388;28;20033;-74
2023/03/22 07:18:49;;;;;;;16.02;3.53;;;11.50;99.90;;;;;;5034278;28;20112;-74
2023/03/22 07:21:15;;;;;;;11.55;2.88;;;11.60;99.90;;;;;;5034388;28;20533;-74
2023/03/22 07:23:40;;;;;;;18.63;6.43;;;11.60;99.90;;;;;;5033219;28;20505;-74
2023/03/22 07:26:06;;;;;;;11.13;3.63;;;11.70;99.90;;;;;;5033548;28;20029;-74
2023/03/22 07:28:32;;;;;;;9.05;2.95;;;11.70;99.90;;;;;;5034121;28;20028;-74
2023/03/22 07:31:03;;;;;;;9.65;2.40;;;11.70;99.90;;;;;;5033538;28;20053;-74
2023/03/22 07:33:29;;;;;;;17.40;3.47;;;11.70;99.90;;;;;;5033859;28;20033;-74
2023/03/22 07:35:55;;;;;;;15.93;5.53;;;11.80;99.90;;;;;;5033601;28;20494;-74
2023/03/22 07:38:21;;;;;;;12.45;4.45;;;11.80;99.90;;;;;;5033865;28;20037;-74
2023/03/22 07:40:46;;;;;;;14.05;3.38;;;11.80;99.90;;;;;;5033694;28;20036;-74
2023/03/22 07:43:12;;;;;;;15.75;4.38;;;11.90;99.90;;;;;;5032001;28;20040;-74
2023/03/22 07:45:39;;;;;;;8.40;2.47;;;11.90;99.90;;;;;;5033702;28;20088;-74
2023/03/22 07:48:05;;;;;;;16.42;4.20;;;12.00;99.90;;;;;;5033316;28;20385;-74
2023/03/22 07:50:31;;;;;;;10.23;2.92;;;12.00;99.90;;;;;;5033295;28;20117;-74
2023/03/22 07:52:56;;;;;;;12.07;3.90;;;11.90;99.90;;;;;;5033428;28;20028;-74
2023/03/22 07:55:22;;;;;;;9.82;3.15;;;11.90;99.90;;;;;;5033365;28;20488;-74
2023/03/22 07:57:47;;;;;;;9.77;2.72;;;11.80;99.90;;;;;;5033161;28;20030;-74
2023/03/22 08:00:14;;;;;;;9.88;2.75;;;11.80;99.90;;;;;;5033303;28;20036;-74
2023/03/22 08:02:40;;;;;;;12.05;2.72;;;11.60;99.90;;;;;;5027011;28;20036;-74
2023/03/22 08:05:07;;;;;;;6.40;1.95;;;11.60;99.90;;;;;;5027921;28;20049;-75
2023/03/22 08:07:32;;;;;;;10.35;3.42;;;11.50;99.90;;;;;;5029457;28;20474;-74
2023/03/22 08:10:00;;;;;;;13.63;2.60;;;11.40;99.90;;;;;;5032202;28;20060;-74
2023/03/22 08:12:26;;;;;;;16.65;3.70;;;11.40;99.90;;;;;;5032660;28;20020;-74
2023/03/22 08:14:52;;;;;;;13.15;3.00;;;11.30;99.90;;;;;;5031067;28;20033;-73
2023/03/22 08:17:19;;;;;;;7.75;2.55;;;11.20;99.90;;;;;;5031790;28;20120;-75
2023/03/22 08:19:45;;;;;;;10.73;2.58;;;11.10;99.90;;;;;;5014220;28;20462;-74
2023/03/22 08:22:12;;;;;;;12.85;3.20;;;11.00;99.90;;;;;;5032537;28;20033;-74
2023/03/22 08:24:37;;;;;;;12.95;3.03;;;10.90;99.90;;;;;;5032374;28;20033;-74
2023/03/22 08:27:03;;;;;;;15.60;4.93;;;10.80;99.90;;;;;;5032771;28;20029;-74
2023/03/22 08:29:29;;;;;;;9.10;2.17;;;10.70;99.90;;;;;;5032105;28;20627;-74
2023/03/22 08:31:55;;;;;;;21.25;6.90;;;10.70;99.90;;;;;;5032225;28;20045;-74
2023/03/22 08:34:20;;;;;;;11.70;3.53;;;10.60;99.90;;;;;;5032748;28;20496;-74
2023/03/22 08:36:46;;;;;;;9.43;2.97;;;10.50;99.90;;;;;;5032122;28;20041;-74
2023/03/22 08:39:12;;;;;;;17.30;6.20;;;10.50;99.90;;;;;;5031705;28;20033;-75
2023/03/22 08:41:38;;;;;;;14.85;4.80;;;10.40;99.90;;;;;;5031548;28;20029;-75
2023/03/22 08:44:04;;;;;;;21.50;4.72;;;10.40;99.90;;;;;;5026418;28;20124;-74
2023/03/22 08:46:30;;;;;;;16.08;4.50;;;10.40;99.90;;;;;;5018802;28;20486;-74
2023/03/22 08:48:59;;;;;;;18.67;4.70;;;10.40;99.90;;;;;;5018528;28;20058;-74
2023/03/22 08:51:24;;;;;;;23.55;5.45;;;10.40;99.90;;;;;;5020412;28;20021;-74
2023/03/22 08:53:50;;;;;;;11.05;2.85;;;10.40;99.90;;;;;;5022735;28;20038;-74
2023/03/22 08:56:16;;;;;;;13.35;3.08;;;10.40;99.90;;;;;;5021556;28;20033;-74
2023/03/22 08:58:45;;;;;;;14.13;4.32;;;10.30;99.90;;;;;;5024776;28;20037;-73
2023/03/22 09:01:15;;;;;;;20.90;5.05;;;10.30;99.90;;;;;;5021957;28;20486;-73
2023/03/22 09:03:42;;;;;;;13.70;4.10;;;10.30;99.90;;;;;;5030185;28;20038;-74
2023/03/22 09:06:09;;;;;;;12.93;3.70;;;10.30;99.90;;;;;;5014680;28;20029;-73
2023/03/22 09:08:35;;;;;;;11.73;4.10;;;10.30;99.90;;;;;;5027592;28;20025;-73
2023/03/22 09:11:01;;;;;;;12.85;3.15;;;10.30;99.90;;;;;;5022570;28;20038;-75
2023/03/22 09:13:27;;;;;;;20.08;4.28;;;10.40;99.90;;;;;;5020899;28;20026;-74
2023/03/22 09:15:52;;;;;;;15.27;3.80;;;10.40;99.90;;;;;;5028224;28;20044;-75
2023/03/22 09:18:18;;;;;;;12.30;4.40;;;10.40;99.90;;;;;;5027467;28;20037;-74
2023/03/22 09:20:45;;;;;;;14.68;4.72;;;10.40;99.90;;;;;;5032266;28;20029;-74
2023/03/22 09:23:16;;;;;;;9.98;3.63;;;10.40;99.90;;;;;;5033414;28;20041;-74
2023/03/22 09:25:42;;;;;;;17.30;3.10;;;10.40;99.90;;;;;;5019811;28;20075;-74
2023/03/22 09:28:08;;;;;;;10.07;2.67;;;10.40;99.90;;;;;;5031141;28;20022;-73
2023/03/22 09:30:35;;;;;;;9.73;4.07;;;10.40;99.90;;;;;;5026477;28;20441;-74
2023/03/22 09:33:01;;;;;;;12.93;3.85;;;10.40;99.90;;;;;;5032523;28;20033;-73
2023/03/22 09:35:27;;;;;;;24.45;7.68;;;10.40;99.90;;;;;;5031955;28;20075;-73
2023/03/22 09:37:53;;;;;;;14.57;3.92;;;10.30;99.90;;;;;;5031806;28;20025;-73
2023/03/22 09:40:20;;;;;;;16.02;4.28;;;10.40;99.90;;;;;;5032155;28;20024;-73
2023/03/22 09:42:50;;;;;;;12.85;3.83;;;10.40;99.90;;;;;;5031839;28;20030;-74
2023/03/22 09:45:34;;;;;;;13.23;3.05;;;10.40;99.90;;;;;;5015209;28;20042;-73
2023/03/22 09:48:02;;;;;;;12.85;4.53;;;10.40;99.90;;;;;;5032256;28;20030;-73
2023/03/22 09:50:30;;;;;;;16.08;6.13;;;10.40;99.90;;;;;;5033269;28;20474;-74
2023/03/22 09:52:57;;;;;;;23.38;6.03;;;10.50;99.90;;;;;;5035910;28;20489;-73
2023/03/22 09:55:40;;;;;;;12.18;2.85;;;10.60;99.90;;;;;;5035562;28;20481;-73
2023/03/22 09:58:20;;;;;;;17.13;4.53;;;10.60;99.90;;;;;;5035722;28;20170;-73
2023/03/22 10:00:59;;;;;;;20.25;5.50;;;10.60;99.90;;;;;;5035349;28;20056;-74
2023/03/22 10:03:28;;;;;;;9.85;3.65;;;10.60;99.90;;;;;;5020088;28;20445;-73
2023/03/22 10:06:04;;;;;;;9.30;2.90;;;10.60;99.90;;;;;;5035236;28;20033;-74
2023/03/22 10:08:49;;;;;;;10.38;3.70;;;10.60;99.90;;;;;;5035828;28;20022;-73
2023/03/22 10:11:27;;;;;;;14.10;3.70;;;10.60;99.90;;;;;;5034841;28;20457;-73
2023/03/22 10:14:29;;;;;;;17.02;4.60;;;10.60;99.90;;;;;;5035294;28;20855;-73
2023/03/22 10:16:57;;;;;;;12.95;3.90;;;10.70;99.90;;;;;;5035224;28;20110;-73
2023/03/22 10:19:30;;;;;;;11.65;3.70;;;10.70;99.90;;;;;;5026148;28;20044;-73
2023/03/22 10:21:57;;;;;;;15.95;3.55;;;10.70;99.90;;;;;;5031151;28;20025;-74
2023/03/22 10:24:28;;;;;;;13.52;3.63;;;10.70;99.90;;;;;;5032559;28;20077;-74
2023/03/22 10:26:55;;;;;;;14.88;3.78;;;10.80;99.90;;;;;;5027071;28;20041;-74
2023/03/22 10:29:37;;;;;;;11.38;3.70;;;10.80;99.90;;;;;;5027018;28;20029;-73
2023/03/22 10:32:40;;;;;;;21.17;4.82;;;10.90;99.90;;;;;;5031449;28;20053;-73
2023/03/22 10:35:07;;;;;;;10.35;3.95;;;10.90;99.90;;;;;;5033044;28;20057;-73
2023/03/22 10:37:34;;;;;;;8.52;3.15;;;11.00;99.90;;;;;;5033512;28;20133;-73
2023/03/22 10:40:06;;;;;;;11.75;3.70;;;11.00;99.90;;;;;;5031161;28;20022;-72
2023/03/22 10:42:35;;;;;;;10.35;3.40;;;11.00;99.90;;;;;;5033947;28;20034;-73
2023/03/22 10:45:28;;;;;;;15.40;3.90;;;11.10;99.90;;;;;;5031121;28;20121;-73
2023/03/22 10:48:01;;;;;;;7.50;3.65;;;11.20;99.90;;;;;;5029005;28;20048;-73
2023/03/22 10:50:35;;;;;;;11.10;3.45;;;11.30;99.90;;;;;;5030880;28;20037;-72
2023/03/22 10:53:11;;;;;;;8.95;3.30;;;11.30;99.90;;;;;;5025162;28;20022;-72
2023/03/22 10:55:42;;;;;;;11.02;3.20;;;11.40;99.90;;;;;;5025872;28;20029;-72
2023/03/22 10:58:14;;;;;;;9.30;3.13;;;11.50;99.90;;;;;;5031463;28;20108;-72
2023/03/22 11:00:51;;;;;;;7.50;3.25;;;11.60;99.90;;;;;;5030294;28;20024;-72
2023/03/22 11:03:30;;;;;;;11.93;3.58;;;11.80;99.90;;;;;;5032917;28;20039;-71
2023/03/22 11:06:16;;;;;;;10.43;3.75;;;11.90;99.90;;;;;;5033231;28;20096;-72
2023/03/22 11:08:48;;;;;;;9.75;3.28;;;11.90;99.90;;;;;;5030626;28;20026;-73
2023/03/22 11:11:24;;;;;;;10.38;2.92;;;11.90;99.90;;;;;;5033352;28;20041;-72
2023/03/22 11:13:58;;;;;;;10.77;3.35;;;11.90;99.90;;;;;;5028642;28;20117;-72
2023/03/22 11:16:25;;;;;;;8.35;3.00;;;11.90;99.90;;;;;;5034305;28;20087;-72
2023/03/22 11:18:50;;;;;;;17.98;3.53;;;11.90;99.90;;;;;;5033922;28;20028;-72
2023/03/22 11:21:30;;;;;;;9.43;3.55;;;11.80;99.90;;;;;;5033103;28;20030;-72
2023/03/22 11:24:06;;;;;;;8.45;3.08;;;11.90;99.90;;;;;;5026487;28;20124;-71
2023/03/22 11:26:36;;;;;;;9.82;3.35;;;11.80;99.90;;;;;;5024494;28;20034;-72
2023/03/22 11:29:22;;;;;;;12.50;4.07;;;11.70;99.90;;;;;;5033625;28;20519;-71
2023/03/22 11:31:58;;;;;;;13.73;5.35;;;11.70;99.90;;;;;;5033236;28;20044;-72
2023/03/22 11:34:29;;;;;;;10.63;3.33;;;11.60;99.90;;;;;;5034086;28;20109;-72
2023/03/22 11:36:59;;;;;;;12.20;4.05;;;11.70;99.90;;;;;;5033759;28;20445;-72
2023/03/22 11:39:28;;;;;;;14.50;4.05;;;11.60;99.90;;;;;;5033781;28;20026;-73
2023/03/22 11:42:00;;;;;;;16.20;5.07;;;11.60;99.90;;;;;;5032410;28;20101;-72
2023/03/22 11:44:30;;;;;;;12.48;4.38;;;11.70;99.90;;;;;;5033349;28;20044;-72
2023/03/22 11:46:59;;;;;;;11.30;3.97;;;11.80;99.90;;;;;;5032882;28;20029;-72
2023/03/22 11:49:45;;;;;;;14.80;3.88;;;11.70;99.90;;;;;;5033535;28;20091;-72
2023/03/22 11:52:25;;;;;;;10.23;4.00;;;11.80;99.90;;;;;;5033661;28;20044;-72
2023/03/22 11:54:53;;;;;;;23.38;6.32;;;11.90;99.90;;;;;;5033869;28;20043;-72
2023/03/22 11:57:31;;;;;;;11.77;4.10;;;11.90;99.90;;;;;;5033805;28;20064;-72
2023/03/22 12:00:06;;;;;;;8.70;3.17;;;11.90;99.90;;;;;;5033514;28;20028;-72
2023/03/22 12:02:37;;;;;;;12.05;3.58;;;11.90;99.90;;;;;;5031932;28;20017;-72
2023/03/22 12:05:21;;;;;;;13.35;4.32;;;12.00;99.90;;;;;;5033627;28;20056;-73
2023/03/22 12:07:54;;;;;;;10.88;4.28;;;12.00;99.90;;;;;;5033595;28;20017;-72
2023/03/22 12:10:28;;;;;;;16.70;4.53;;;12.10;99.90;;;;;;5033516;28;20021;-73
2023/03/22 12:13:18;;;;;;;10.60;3.30;;;12.10;99.90;;;;;;5032610;28;20114;-72
2023/03/22 12:15:50;;;;;;;6.75;2.95;;;12.10;99.90;;;;;;5024199;28;20033;-72
2023/03/22 12:18:28;;;;;;;9.00;3.38;;;12.20;99.90;;;;;;5033114;28;20017;-72
2023/03/22 12:20:56;;;;;;;10.07;4.00;;;12.20;99.90;;;;;;5033341;28;20041;-72
2023/03/22 12:23:24;;;;;;;11.13;4.07;;;12.30;99.90;;;;;;5033379;28;20493;-72
2023/03/22 12:26:03;;;;;;;11.20;3.85;;;12.30;99.90;;;;;;5032987;28;20136;-72
2023/03/22 12:28:40;;;;;;;9.27;4.07;;;12.30;99.90;;;;;;5032928;28;20081;-73
2023/03/22 12:31:12;;;;;;;12.23;4.38;;;12.40;99.90;;;;;;5032776;28;20041;-72
2023/03/22 12:33:49;;;;;;;11.65;4.25;;;12.40;99.90;;;;;;5015477;28;20377;-73
2023/03/22 12:36:18;;;;;;;10.70;3.65;;;12.40;99.90;;;;;;5032668;28;20334;-72
2023/03/22 12:38:56;;;;;;;11.95;4.13;;;12.50;99.90;;;;;;5031829;28;20374;-72
2023/03/22 12:41:30;;;;;;;9.18;3.80;;;12.50;99.90;;;;;;5032447;28;20025;-72
2023/03/22 12:44:01;;;;;;;10.32;3.65;;;12.50;99.90;;;;;;5032989;28;20029;-72
2023/03/22 12:46:29;;;;;;;7.68;3.22;;;12.60;99.90;;;;;;5032615;28;20112;-72
2023/03/22 12:49:26;;;;;;;12.52;3.95;;;12.60;99.90;;;;;;5032900;28;20031;-72
2023/03/22 12:51:56;;;;;;;9.88;3.90;;;12.50;99.90;;;;;;5032698;28;20030;-72